Time;durP1;ratioP1;P1;durP2;ratioP2;P2;SDS_P1;SDS_P2;PMS_P1;PMS_P2;Temp;Humidity;BMP_temperature;BMP_pressure;BME280_temperature;BME280_humidity;BME280_pressure;Samples;Min_cycle;Max_cycle;Signal;HPM_P1;HPM_P2
2022/10/14 00:01:30;;;;;;;37.25;32.65;;;;;;;11.77;100.00;101455.34;5053506;28;20042;-62
2022/10/14 00:03:55;;;;;;;36.47;32.08;;;;;;;11.76;100.00;101460.50;5067292;28;20043;-61
2022/10/14 00:06:27;;;;;;;37.90;33.45;;;;;;;11.77;100.00;101463.13;5066505;28;20020;-62
2022/10/14 00:08:53;;;;;;;38.35;30.75;;;;;;;11.77;100.00;101451.84;5066929;28;20036;-62
2022/10/14 00:11:28;;;;;;;35.75;31.27;;;;;;;11.77;100.00;101457.06;5063000;28;20427;-62
2022/10/14 00:13:59;;;;;;;36.22;31.80;;;;;;;11.76;100.00;101456.16;5057571;28;20036;-62
2022/10/14 00:16:31;;;;;;;39.20;31.55;;;;;;;11.76;100.00;101461.34;5052075;28;20029;-62
2022/10/14 00:18:57;;;;;;;43.58;30.55;;;;;;;11.75;100.00;101464.78;5055966;28;20036;-62
2022/10/14 00:21:23;;;;;;;37.10;31.55;;;;;;;11.77;100.00;101460.53;5063312;28;20154;-62
2022/10/14 00:23:48;;;;;;;36.83;32.47;;;;;;;11.77;100.00;101457.06;5066380;28;20042;-62
2022/10/14 00:26:19;;;;;;;40.10;31.80;;;;;;;11.77;100.00;101462.25;5054694;28;20039;-62
2022/10/14 00:28:44;;;;;;;35.80;30.33;;;;;;;11.76;100.00;101456.16;5052756;28;20028;-62
2022/10/14 00:31:09;;;;;;;39.25;31.95;;;;;;;11.77;100.00;101462.25;5079368;28;20448;-62
2022/10/14 00:33:35;;;;;;;40.67;32.67;;;;;;;11.76;100.00;101461.34;5064146;28;20028;-62
2022/10/14 00:36:03;;;;;;;36.08;31.77;;;;;;;11.76;100.00;101456.16;5056160;28;20461;-62
2022/10/14 00:38:28;;;;;;;39.50;32.83;;;;;;;11.75;100.00;101454.41;5052240;28;20025;-62
2022/10/14 00:40:54;;;;;;;36.50;32.28;;;;;;;11.74;100.00;101447.47;5061288;28;20024;-62
2022/10/14 00:43:22;;;;;;;37.90;33.15;;;;;;;11.74;100.00;101434.47;5046377;28;20041;-62
2022/10/14 00:45:47;;;;;;;37.95;33.70;;;;;;;11.73;100.00;101435.28;5064792;28;20039;-62
2022/10/14 00:48:13;;;;;;;40.05;32.55;;;;;;;11.72;100.00;101433.53;5066531;28;20071;-62
2022/10/14 00:50:43;;;;;;;37.70;32.97;;;;;;;11.73;100.00;101435.28;5064545;28;20028;-62
2022/10/14 00:53:10;;;;;;;38.70;32.58;;;;;;;11.73;100.00;101432.69;5054270;28;20029;-62
2022/10/14 00:55:37;;;;;;;41.15;33.33;;;;;;;11.73;100.00;101437.88;5062408;28;20099;-62
2022/10/14 00:58:04;;;;;;;37.40;31.08;;;;;;;11.73;100.00;101429.19;5061830;28;20476;-61
2022/10/14 01:00:29;;;;;;;36.97;32.42;;;;;;;11.72;100.00;101428.34;5074078;28;20147;-62
2022/10/14 01:02:56;;;;;;;43.25;33.22;;;;;;;11.72;100.00;101430.94;5069411;28;20110;-62
2022/10/14 01:05:23;;;;;;;38.20;32.70;;;;;;;11.71;100.00;101415.31;5069449;28;20020;-62
2022/10/14 01:08:09;;;;;;;40.33;32.90;;;;;;;11.70;100.00;101419.59;5069737;28;20123;-62
2022/10/14 01:10:49;;;;;;;38.08;32.17;;;;;;;11.71;100.00;101418.75;5069845;28;20452;-61
2022/10/14 01:13:36;;;;;;;37.47;30.92;;;;;;;11.72;100.00;101417.06;5062333;28;20103;-62
2022/10/14 01:16:19;;;;;;;39.67;33.45;;;;;;;11.73;100.00;101413.63;5068871;28;20024;-62
2022/10/14 01:19:07;;;;;;;39.08;33.17;;;;;;;11.71;100.00;101410.09;5067256;28;20020;-62
2022/10/14 01:21:51;;;;;;;38.63;31.58;;;;;;;11.70;100.00;101409.22;5066124;28;20051;-62
2022/10/14 01:24:28;;;;;;;37.55;32.25;;;;;;;11.71;100.00;101395.41;5060592;28;20028;-62
2022/10/14 01:27:15;;;;;;;39.25;31.52;;;;;;;11.70;100.00;101391.03;5073790;28;20096;-62
2022/10/14 01:30:00;;;;;;;33.13;29.58;;;;;;;11.70;100.00;101379.75;5075201;28;20064;-62
2022/10/14 01:33:01;;;;;;;34.75;30.08;;;;;;;11.69;100.00;101371.13;5069192;28;20061;-62
2022/10/14 01:35:36;;;;;;;35.40;29.65;;;;;;;11.69;100.00;101371.13;5069645;28;20055;-62
2022/10/14 01:38:11;;;;;;;39.08;30.98;;;;;;;11.68;100.00;101374.53;5068974;28;20028;-62
2022/10/14 01:40:43;;;;;;;33.80;30.23;;;;;;;11.67;100.00;101361.50;5053405;28;20036;-62
2022/10/14 01:43:12;;;;;;;34.38;28.23;;;;;;;11.65;100.00;101359.75;5068509;28;20584;-62
2022/10/14 01:45:42;;;;;;;38.50;30.45;;;;;;;11.65;100.00;101364.03;5068976;28;20021;-62
2022/10/14 01:48:10;;;;;;;34.00;29.05;;;;;;;11.62;100.00;101358.75;5068217;28;20032;-62
2022/10/14 01:50:37;;;;;;;37.13;29.23;;;;;;;11.61;100.00;101354.34;5082492;28;20055;-62
2022/10/14 01:53:08;;;;;;;37.75;28.80;;;;;;;11.59;100.00;101354.31;5069136;28;20454;-62
2022/10/14 01:55:40;;;;;;;39.50;29.20;;;;;;;11.58;100.00;101355.16;5069230;28;20036;-62
2022/10/14 01:58:07;;;;;;;36.58;28.30;;;;;;;11.58;100.00;101354.25;5071733;28;20542;-61
2022/10/14 02:00:32;;;;;;;36.88;29.77;;;;;;;11.58;100.00;101356.84;5070418;28;20072;-62
2022/10/14 02:02:58;;;;;;;35.67;29.73;;;;;;;11.57;100.00;101360.25;5062584;28;20024;-62
2022/10/14 02:05:33;;;;;;;36.42;28.55;;;;;;;11.57;100.00;101360.25;5067329;28;20103;-62
2022/10/14 02:08:30;;;;;;;39.65;27.75;;;;;;;11.57;100.00;101349.88;5068601;28;20025;-62
2022/10/14 02:11:10;;;;;;;34.10;27.23;;;;;;;11.54;100.00;101350.66;5068253;28;20419;-62
2022/10/14 02:14:10;;;;;;;35.03;27.63;;;;;;;11.55;100.00;101346.38;5067980;28;20485;-62
2022/10/14 02:16:54;;;;;;;36.17;28.60;;;;;;;11.55;100.00;101352.41;5050523;28;20039;-62
2022/10/14 02:19:32;;;;;;;39.75;28.40;;;;;;;11.55;100.00;101346.38;5067523;28;20461;-62
2022/10/14 02:22:27;;;;;;;38.72;29.23;;;;;;;11.53;100.00;101342.00;5068396;28;20032;-62
2022/10/14 02:24:57;;;;;;;40.65;30.45;;;;;;;11.53;100.00;101339.38;5068344;28;20039;-61
2022/10/14 02:27:25;;;;;;;41.25;30.20;;;;;;;11.53;100.00;101336.78;5077283;28;20364;-62
2022/10/14 02:29:52;;;;;;;40.35;29.30;;;;;;;11.52;100.00;101335.03;5086800;28;20521;-62
2022/10/14 02:32:20;;;;;;;41.10;29.63;;;;;;;11.53;100.00;101344.59;5068240;28;20541;-62
2022/10/14 02:34:49;;;;;;;44.05;30.02;;;;;;;11.55;100.00;101333.38;5068379;28;20024;-62
2022/10/14 02:37:15;;;;;;;39.63;30.25;;;;;;;11.56;100.00;101337.75;5054486;28;20442;-62
2022/10/14 02:39:53;;;;;;;42.95;30.50;;;;;;;11.56;100.00;101342.94;5067777;28;20020;-62
2022/10/14 02:42:19;;;;;;;45.78;29.05;;;;;;;11.56;100.00;101337.75;5075890;28;20076;-61
2022/10/14 02:44:55;;;;;;;38.33;29.63;;;;;;;11.57;100.00;101342.97;5072829;28;20053;-62
2022/10/14 02:47:22;;;;;;;42.72;29.85;;;;;;;11.57;100.00;101335.19;5088786;28;20444;-62
2022/10/14 02:49:47;;;;;;;37.28;28.10;;;;;;;11.58;100.00;101329.19;5083127;28;20057;-62
2022/10/14 02:52:13;;;;;;;40.92;30.83;;;;;;;11.57;100.00;101323.91;5074780;28;20518;-61
2022/10/14 02:54:38;;;;;;;41.58;30.05;;;;;;;11.59;100.00;101325.75;5087982;28;20028;-62
2022/10/14 02:57:03;;;;;;;41.25;29.33;;;;;;;11.59;100.00;101324.88;5076807;28;20029;-62
2022/10/14 02:59:29;;;;;;;41.83;31.23;;;;;;;11.59;100.00;101325.75;5067056;28;20028;-62
2022/10/14 03:01:54;;;;;;;43.25;29.33;;;;;;;11.61;100.00;101320.63;5068619;28;20017;-62
2022/10/14 03:04:19;;;;;;;40.67;29.08;;;;;;;11.61;100.00;101312.81;5067568;28;20036;-62
2022/10/14 03:06:44;;;;;;;41.17;29.73;;;;;;;11.62;100.00;101318.06;5067487;28;20182;-61
2022/10/14 03:09:10;;;;;;;40.50;28.23;;;;;;;11.62;100.00;101306.81;5067588;28;20079;-62
2022/10/14 03:11:35;;;;;;;44.72;28.73;;;;;;;11.63;100.00;101308.56;5055802;28;20115;-62
2022/10/14 03:14:00;;;;;;;43.30;30.30;;;;;;;11.63;100.00;101305.97;5067371;28;20032;-62
2022/10/14 03:16:25;;;;;;;44.17;28.42;;;;;;;11.64;100.00;101305.13;5069425;28;20063;-62
2022/10/14 03:18:51;;;;;;;46.70;29.25;;;;;;;11.64;100.00;101299.94;5078099;28;20034;-62
2022/10/14 03:21:16;;;;;;;41.75;28.15;;;;;;;11.64;100.00;101295.66;5073423;28;20773;-62
2022/10/14 03:23:41;;;;;;;41.97;28.25;;;;;;;11.64;100.00;101289.56;5080492;28;20035;-62
2022/10/14 03:26:07;;;;;;;45.22;28.58;;;;;;;11.65;100.00;101291.34;5066569;28;20085;-61
2022/10/14 03:28:32;;;;;;;40.88;29.35;;;;;;;11.65;100.00;101291.34;5085145;28;20032;-62
2022/10/14 03:30:57;;;;;;;41.20;28.30;;;;;;;11.66;100.00;101300.88;5087396;28;20027;-62
2022/10/14 03:33:22;;;;;;;41.00;27.65;;;;;;;11.65;100.00;101287.06;5071284;28;20039;-62
2022/10/14 03:35:48;;;;;;;39.90;28.65;;;;;;;11.67;100.00;101288.81;5060763;28;20087;-62
2022/10/14 03:38:14;;;;;;;40.72;29.83;;;;;;;11.66;100.00;101287.91;5048939;28;20021;-62
2022/10/14 03:40:39;;;;;;;38.60;28.10;;;;;;;11.67;100.00;101288.81;5065375;28;20104;-62
2022/10/14 03:43:04;;;;;;;36.03;26.98;;;;;;;11.68;100.00;101274.97;5055180;28;20496;-62
2022/10/14 03:45:30;;;;;;;41.47;29.00;;;;;;;11.68;100.00;101283.66;5066870;28;20100;-62
2022/10/14 03:47:55;;;;;;;41.75;27.67;;;;;;;11.68;100.00;101275.88;5067491;28;20016;-62
2022/10/14 03:50:20;;;;;;;42.55;29.35;;;;;;;11.70;100.00;101270.72;5066669;28;20024;-62
2022/10/14 03:52:46;;;;;;;43.25;28.33;;;;;;;11.70;100.00;101268.13;5068505;28;20107;-62
2022/10/14 03:55:11;;;;;;;41.58;28.08;;;;;;;11.70;100.00;101269.03;5066496;28;20538;-62
2022/10/14 03:57:36;;;;;;;37.15;26.58;;;;;;;11.70;100.00;101269.03;5065647;28;20031;-62
2022/10/14 04:00:03;;;;;;;38.50;27.63;;;;;;;11.71;100.00;101270.78;5067059;28;20456;-62
2022/10/14 04:02:28;;;;;;;34.42;26.98;;;;;;;11.71;100.00;101264.72;5051720;28;20385;-62
2022/10/14 04:04:54;;;;;;;39.13;27.20;;;;;;;11.71;100.00;101264.72;5068494;28;20020;-62
2022/10/14 04:07:19;;;;;;;38.65;27.90;;;;;;;11.70;100.00;101258.63;5054850;28;20325;-62
2022/10/14 04:09:44;;;;;;;41.40;27.80;;;;;;;11.70;100.00;101258.63;5066322;28;20427;-62
2022/10/14 04:12:10;;;;;;;37.72;27.40;;;;;;;11.71;100.00;101249.16;5067216;28;20043;-62
2022/10/14 04:14:35;;;;;;;39.15;27.23;;;;;;;11.70;100.00;101258.63;5066133;28;20401;-62
2022/10/14 04:17:00;;;;;;;33.53;25.90;;;;;;;11.70;100.00;101253.44;5061176;28;20025;-62
2022/10/14 04:19:26;;;;;;;39.05;27.20;;;;;;;11.71;100.00;101255.19;5059235;28;20464;-62
2022/10/14 04:21:51;;;;;;;35.83;27.02;;;;;;;11.71;100.00;101243.97;5066204;28;20520;-62
2022/10/14 04:24:16;;;;;;;36.78;25.83;;;;;;;11.70;100.00;101250.84;5064890;28;20031;-62
2022/10/14 04:26:42;;;;;;;34.42;25.65;;;;;;;11.71;100.00;101251.75;5067756;28;20100;-62
2022/10/14 04:29:07;;;;;;;37.20;26.13;;;;;;;11.71;100.00;101244.81;5066711;28;20028;-62
2022/10/14 04:31:32;;;;;;;35.85;25.15;;;;;;;11.72;100.00;101240.53;5054292;28;20283;-62
2022/10/14 04:33:58;;;;;;;34.47;25.95;;;;;;;11.71;100.00;101239.63;5059643;28;20029;-62
2022/10/14 04:36:23;;;;;;;31.33;24.75;;;;;;;11.71;100.00;101244.81;5069241;28;20024;-62
2022/10/14 04:38:48;;;;;;;39.30;25.95;;;;;;;11.72;100.00;101241.41;5070206;28;20024;-62
2022/10/14 04:41:14;;;;;;;35.25;24.75;;;;;;;11.72;100.00;101232.72;5062856;28;20067;-62
2022/10/14 04:43:39;;;;;;;29.95;23.88;;;;;;;11.72;100.00;101237.91;5050274;28;20471;-62
2022/10/14 04:46:04;;;;;;;36.92;26.00;;;;;;;11.73;100.00;101232.78;5069884;28;20500;-62
2022/10/14 04:48:29;;;;;;;36.72;25.20;;;;;;;11.72;100.00;101233.63;5059479;28;20025;-62
2022/10/14 04:50:55;;;;;;;35.03;24.90;;;;;;;11.73;100.00;101227.59;5067282;28;20569;-62
2022/10/14 04:53:20;;;;;;;34.40;24.02;;;;;;;11.74;100.00;101228.47;5070651;28;20025;-62
2022/10/14 04:55:48;;;;;;;29.85;23.63;;;;;;;11.74;100.00;101221.56;5070319;28;20461;-62
2022/10/14 04:58:14;;;;;;;30.20;23.00;;;;;;;11.74;100.00;101224.19;5055767;28;20033;-62
2022/10/14 05:00:40;;;;;;;29.33;24.60;;;;;;;11.74;100.00;101216.38;5070010;28;20046;-62
2022/10/14 05:03:06;;;;;;;30.50;24.52;;;;;;;11.75;100.00;101222.44;5065354;28;20025;-62
2022/10/14 05:05:31;;;;;;;30.60;23.42;;;;;;;11.74;100.00;101218.09;5059966;28;20038;-62
2022/10/14 05:07:57;;;;;;;27.52;22.08;;;;;;;11.74;100.00;101213.78;5069404;28;20071;-62
2022/10/14 05:10:22;;;;;;;27.70;22.13;;;;;;;11.77;100.00;101220.78;5056122;28;20032;-62
2022/10/14 05:12:47;;;;;;;26.88;22.15;;;;;;;11.76;100.00;101206.91;5069403;28;20094;-62
2022/10/14 05:15:13;;;;;;;32.25;22.85;;;;;;;11.76;100.00;101212.09;5069372;28;20028;-63
2022/10/14 05:17:38;;;;;;;27.85;22.98;;;;;;;11.77;100.00;101202.59;5059469;28;20025;-62
2022/10/14 05:20:05;;;;;;;27.60;22.25;;;;;;;11.76;100.00;101196.53;5064808;28;20052;-63
2022/10/14 05:22:30;;;;;;;27.08;22.00;;;;;;;11.77;100.00;101197.41;5069535;28;20021;-62
2022/10/14 05:24:56;;;;;;;28.02;21.38;;;;;;;11.78;100.00;101196.59;5068573;28;20548;-62
2022/10/14 05:27:21;;;;;;;28.65;22.13;;;;;;;11.78;100.00;101196.59;5064630;28;20032;-62
2022/10/14 05:29:47;;;;;;;26.38;22.35;;;;;;;11.79;100.00;101189.66;5061217;28;20077;-62
2022/10/14 05:32:13;;;;;;;25.42;20.35;;;;;;;11.80;100.00;101183.66;5067192;28;20539;-62
2022/10/14 05:34:39;;;;;;;27.40;21.58;;;;;;;11.81;100.00;101178.53;5054401;28;20422;-63
2022/10/14 05:37:04;;;;;;;27.83;20.40;;;;;;;11.81;100.00;101167.25;5068876;28;20028;-63
2022/10/14 05:39:29;;;;;;;28.25;20.67;;;;;;;11.81;100.00;101169.84;5068626;28;20028;-63
2022/10/14 05:41:55;;;;;;;24.33;20.52;;;;;;;11.83;100.00;101181.16;5064597;28;20579;-62
2022/10/14 05:44:20;;;;;;;24.27;20.30;;;;;;;11.85;100.00;101176.91;5061830;28;20404;-63
2022/10/14 05:46:45;;;;;;;24.90;20.20;;;;;;;11.83;100.00;101166.47;5062091;28;20013;-63
2022/10/14 05:49:11;;;;;;;24.92;20.50;;;;;;;11.83;100.00;101161.28;5060602;28;20048;-63
2022/10/14 05:51:37;;;;;;;22.77;18.85;;;;;;;11.84;100.00;101156.94;5054045;28;20115;-63
2022/10/14 05:54:03;;;;;;;24.15;19.83;;;;;;;11.85;100.00;101161.31;5053182;28;20044;-63
2022/10/14 05:56:28;;;;;;;25.65;20.00;;;;;;;11.86;100.00;101163.06;5051037;28;20052;-63
2022/10/14 05:58:53;;;;;;;25.52;18.60;;;;;;;11.87;100.00;101154.47;5054193;28;20281;-63
2022/10/14 06:01:19;;;;;;;25.23;19.45;;;;;;;11.88;100.00;101151.03;5050531;28;20032;-63
2022/10/14 06:03:44;;;;;;;24.10;19.50;;;;;;;11.88;100.00;101153.63;5052597;28;20031;-63
2022/10/14 06:06:13;;;;;;;24.75;19.05;;;;;;;11.88;100.00;101153.63;5056911;28;20020;-63
2022/10/14 06:08:38;;;;;;;21.20;18.90;;;;;;;11.89;100.00;101155.41;5051523;28;20025;-63
2022/10/14 06:11:04;;;;;;;24.13;18.58;;;;;;;11.90;100.00;101162.34;5055732;28;20059;-63
2022/10/14 06:13:29;;;;;;;25.95;20.40;;;;;;;11.91;100.00;101148.50;5060301;28;20013;-63
2022/10/14 06:15:55;;;;;;;22.10;19.25;;;;;;;11.92;100.00;101149.41;5057952;28;20036;-63
2022/10/14 06:18:20;;;;;;;24.33;19.67;;;;;;;11.92;100.00;101147.69;5061362;28;20091;-62
2022/10/14 06:20:52;;;;;;;27.15;20.25;;;;;;;11.92;100.00;101139.91;5056824;28;20028;-63
2022/10/14 06:23:18;;;;;;;23.55;19.02;;;;;;;11.93;100.00;101139.06;5056914;28;20016;-63
2022/10/14 06:25:43;;;;;;;22.05;18.48;;;;;;;11.94;100.00;101143.44;5056299;28;20049;-63
2022/10/14 06:28:08;;;;;;;24.10;17.83;;;;;;;11.95;100.00;101140.00;5059132;28;20032;-63
2022/10/14 06:30:34;;;;;;;22.90;18.23;;;;;;;11.97;100.00;101135.75;5057921;28;20452;-63
2022/10/14 06:32:59;;;;;;;21.45;18.15;;;;;;;11.97;100.00;101137.44;5060098;28;20021;-63
2022/10/14 06:35:25;;;;;;;23.15;18.60;;;;;;;11.98;100.00;101139.22;5058421;28;20082;-63
2022/10/14 06:37:50;;;;;;;21.80;17.83;;;;;;;11.99;100.00;101144.47;5059561;28;20087;-63
2022/10/14 06:40:15;;;;;;;24.08;18.52;;;;;;;12.00;100.00;101138.41;5058165;28;20032;-63
2022/10/14 06:42:40;;;;;;;23.23;18.85;;;;;;;11.99;100.00;101136.69;5052941;28;20145;-63
2022/10/14 06:45:06;;;;;;;22.52;17.83;;;;;;;12.01;100.00;101134.13;5060557;28;20063;-63
2022/10/14 06:47:31;;;;;;;22.08;17.35;;;;;;;12.01;100.00;101135.00;5055270;28;21247;-62
2022/10/14 06:49:57;;;;;;;22.27;18.38;;;;;;;12.03;100.00;101132.47;5051708;28;20040;-62
2022/10/14 06:52:22;;;;;;;21.00;18.13;;;;;;;12.03;100.00;101131.56;5054448;28;20111;-62
2022/10/14 06:54:47;;;;;;;22.27;18.42;;;;;;;12.05;100.00;101135.09;5054712;28;20074;-62
2022/10/14 06:57:13;;;;;;;22.02;17.77;;;;;;;12.05;100.00;101132.50;5056914;28;20036;-62
2022/10/14 06:59:38;;;;;;;22.67;18.13;;;;;;;12.08;100.00;101132.59;5061172;28;20051;-62
2022/10/14 07:02:03;;;;;;;23.00;18.13;;;;;;;12.09;100.00;101129.13;5058026;28;20430;-62
2022/10/14 07:04:29;;;;;;;23.52;17.98;;;;;;;12.10;100.00;101128.34;5058380;28;20043;-62
2022/10/14 07:06:56;;;;;;;21.65;16.85;;;;;;;12.12;100.00;101121.50;5055527;28;20095;-62
2022/10/14 07:09:21;;;;;;;21.30;18.80;;;;;;;12.12;100.00;101111.09;5057839;28;20385;-62
2022/10/14 07:11:47;;;;;;;23.40;18.58;;;;;;;12.15;100.00;101107.69;5057562;28;20027;-62
2022/10/14 07:14:12;;;;;;;22.65;19.02;;;;;;;12.16;100.00;101112.06;5053626;28;20147;-62
2022/10/14 07:16:37;;;;;;;22.05;18.38;;;;;;;12.16;100.00;101107.75;5054892;28;20376;-62
2022/10/14 07:19:02;;;;;;;22.25;17.35;;;;;;;12.17;100.00;101104.31;5056288;28;20115;-62
2022/10/14 07:21:28;;;;;;;21.00;17.50;;;;;;;12.19;100.00;101113.06;5060285;28;20065;-62
2022/10/14 07:23:54;;;;;;;23.15;17.83;;;;;;;12.20;100.00;101120.00;5054779;28;20036;-62
2022/10/14 07:26:19;;;;;;;23.67;17.23;;;;;;;12.22;100.00;101118.34;5058393;28;20456;-62
2022/10/14 07:28:45;;;;;;;18.70;16.20;;;;;;;12.24;100.00;101127.06;5059311;28;20027;-62
2022/10/14 07:31:11;;;;;;;19.23;17.13;;;;;;;12.25;100.00;101126.22;5061178;28;20025;-62
2022/10/14 07:33:38;;;;;;;18.55;16.45;;;;;;;12.24;100.00;101127.06;5057574;28;20056;-62
2022/10/14 07:36:09;;;;;;;19.70;16.83;;;;;;;12.28;100.00;101132.34;5064208;28;20027;-62
2022/10/14 07:38:35;;;;;;;19.77;17.48;;;;;;;12.29;100.00;101134.09;5056795;28;20024;-62
2022/10/14 07:41:04;;;;;;;20.27;16.17;;;;;;;12.30;100.00;101115.06;5053300;28;20420;-62
2022/10/14 07:43:31;;;;;;;18.80;16.27;;;;;;;12.31;100.00;101127.22;5055822;28;20102;-62
2022/10/14 07:46:01;;;;;;;18.65;16.60;;;;;;;12.32;100.00;101118.59;5059471;28;20043;-62
2022/10/14 07:48:31;;;;;;;19.48;17.00;;;;;;;12.35;100.00;101118.69;5062321;28;20068;-62
2022/10/14 07:50:56;;;;;;;19.38;17.33;;;;;;;12.39;100.00;101119.66;5058696;28;20032;-62
2022/10/14 07:53:23;;;;;;;20.05;17.00;;;;;;;12.41;100.00;101112.78;5056315;28;20029;-62
2022/10/14 07:55:51;;;;;;;22.08;17.38;;;;;;;12.42;100.00;101118.03;5061078;28;20028;-62
2022/10/14 07:58:21;;;;;;;17.73;15.82;;;;;;;12.43;100.00;101116.31;5059631;28;20033;-62
2022/10/14 08:00:48;;;;;;;18.20;15.88;;;;;;;12.44;100.00;101112.88;5058706;28;20052;-63
2022/10/14 08:03:14;;;;;;;18.90;16.02;;;;;;;12.46;100.00;101113.81;5062906;28;20051;-62
2022/10/14 08:05:39;;;;;;;18.85;16.10;;;;;;;12.48;100.00;101113.00;5055377;28;20016;-62
2022/10/14 08:08:05;;;;;;;18.95;16.05;;;;;;;12.49;100.00;101106.97;5057579;28;20077;-62
2022/10/14 08:10:31;;;;;;;17.98;15.57;;;;;;;12.53;100.00;101112.25;5051328;28;20144;-62
2022/10/14 08:12:56;;;;;;;18.92;16.48;;;;;;;12.56;100.00;101107.13;5056196;28;20066;-62
2022/10/14 08:15:24;;;;;;;20.60;16.48;;;;;;;12.59;100.00;101109.84;5054096;28;20464;-62
2022/10/14 08:17:50;;;;;;;16.63;14.85;;;;;;;12.61;100.00;101106.44;5061284;28;20416;-62
2022/10/14 08:20:16;;;;;;;18.67;15.50;;;;;;;12.65;100.00;101111.72;5062363;28;20043;-62
2022/10/14 08:22:41;;;;;;;17.58;15.82;;;;;;;12.68;100.00;101102.28;5055842;28;20032;-62
2022/10/14 08:25:06;;;;;;;19.08;15.38;;;;;;;12.71;100.00;101091.09;5058551;28;20448;-62
2022/10/14 08:27:32;;;;;;;18.45;16.50;;;;;;;12.75;100.00;101092.94;5058788;28;20024;-62
2022/10/14 08:29:57;;;;;;;17.27;15.68;;;;;;;12.77;100.00;101088.63;5057651;28;20040;-61
2022/10/14 08:32:22;;;;;;;16.83;15.00;;;;;;;12.81;100.00;101092.19;5051655;28;20057;-62
2022/10/14 08:34:48;;;;;;;16.67;14.73;;;;;;;12.85;100.00;101099.25;5050559;28;20068;-61
2022/10/14 08:37:13;;;;;;;16.75;15.00;;;;;;;12.87;100.00;101097.59;5053620;28;20037;-62
2022/10/14 08:39:38;;;;;;;17.08;14.88;;;;;;;12.87;100.00;101099.28;5050794;28;20025;-62
2022/10/14 08:42:22;;;;;;;16.95;14.55;;;;;;;12.89;100.00;101095.91;5052861;28;20044;-62
2022/10/14 08:45:20;;;;;;;15.90;14.13;;;;;;;12.93;100.00;101102.94;5054046;28;20132;-62
2022/10/14 08:47:47;;;;;;;16.40;14.68;;;;;;;12.97;100.00;101098.69;5052855;28;20036;-62
2022/10/14 08:50:20;;;;;;;16.15;14.65;;;;;;;12.99;100.00;101098.75;5047682;28;21216;-62
2022/10/14 08:52:49;;;;;;;15.23;13.60;;;;;;;13.02;100.00;101091.03;5052864;28;20178;-62
2022/10/14 08:55:35;;;;;;;15.35;13.85;;;;;;;13.03;100.00;101097.97;5050306;28;20393;-62
2022/10/14 08:58:27;;;;;;;15.15;13.55;;;;;;;13.05;100.00;101085.91;5044941;28;20458;-62
2022/10/14 09:00:54;;;;;;;15.65;14.05;;;;;;;13.07;100.00;101092.03;5047178;28;20376;-62
2022/10/14 09:03:32;;;;;;;15.10;13.63;;;;;;;13.10;100.00;101099.91;5046415;28;20036;-62
2022/10/14 09:06:18;;;;;;;15.63;13.02;;;;;;;13.12;100.00;101089.53;5044574;28;20048;-61
2022/10/14 09:08:47;;;;;;;14.40;13.00;;;;;;;13.14;100.00;101090.44;5048103;28;20049;-62
2022/10/14 09:11:16;;;;;;;14.63;13.13;;;;;;;13.16;100.00;101088.78;5045848;28;20044;-62
2022/10/14 09:13:44;;;;;;;13.48;12.05;;;;;;;13.18;100.00;101082.78;5047582;28;20476;-62
2022/10/14 09:16:22;;;;;;;14.52;13.07;;;;;;;13.19;100.00;101083.63;5053523;28;20365;-62
2022/10/14 09:18:52;;;;;;;13.52;11.98;;;;;;;13.23;100.00;101079.41;5046423;28;20106;-62
2022/10/14 09:21:34;;;;;;;13.63;12.30;;;;;;;13.23;100.00;101082.88;5047044;28;20039;-62
2022/10/14 09:24:01;;;;;;;13.38;11.75;;;;;;;13.24;100.00;101076.81;5049295;28;20056;-62
2022/10/14 09:26:39;;;;;;;12.80;11.52;;;;;;;13.28;100.00;101077.78;5058259;28;20024;-62
2022/10/14 09:29:13;;;;;;;14.95;11.95;;;;;;;13.29;100.00;101069.16;5062227;28;20429;-61
2022/10/14 09:31:38;;;;;;;13.20;11.90;;;;;;;13.32;100.00;101066.63;5050906;28;20513;-62
2022/10/14 09:34:07;;;;;;;13.00;11.70;;;;;;;13.31;100.00;101067.47;5048607;28;20111;-62
2022/10/14 09:36:32;;;;;;;13.38;12.07;;;;;;;13.31;100.00;101063.13;5047917;28;20393;-62
2022/10/14 09:38:57;;;;;;;13.70;11.40;;;;;;;13.31;100.00;101070.06;5048472;28;20025;-62
2022/10/14 09:41:29;;;;;;;12.95;11.48;;;;;;;13.33;100.00;101070.97;5048966;28;20086;-62
2022/10/14 09:44:24;;;;;;;11.43;10.30;;;;;;;13.34;100.00;101067.53;5056435;28;20552;-62
2022/10/14 09:47:02;;;;;;;11.20;9.95;;;;;;;13.32;100.00;101064.00;5063628;28;20012;-62
2022/10/14 09:49:39;;;;;;;11.15;10.02;;;;;;;13.35;100.00;101068.44;5059955;28;20033;-62
2022/10/14 09:52:07;;;;;;;10.63;9.73;;;;;;;13.35;100.00;101063.22;5064861;28;20039;-62
2022/10/14 09:54:33;;;;;;;10.55;9.45;;;;;;;13.34;100.00;101062.34;5064680;28;20154;-62
2022/10/14 09:57:06;;;;;;;10.85;9.73;;;;;;;13.36;100.00;101060.66;5056400;28;20064;-62
2022/10/14 09:59:36;;;;;;;10.63;9.70;;;;;;;13.39;100.00;101065.03;5065042;28;20028;-62
2022/10/14 10:02:04;;;;;;;11.32;9.80;;;;;;;13.42;100.00;101054.72;5057871;28;20044;-62
2022/10/14 10:04:43;;;;;;;11.65;10.55;;;;;;;13.43;100.00;101054.75;5054704;28;20029;-62
2022/10/14 10:07:32;;;;;;;12.60;10.60;;;;;;;13.45;100.00;101046.97;5058499;28;20040;-62
2022/10/14 10:10:15;;;;;;;10.75;9.75;;;;;;;13.48;100.00;101051.34;5054736;28;20024;-62
2022/10/14 10:12:45;;;;;;;10.75;9.65;;;;;;;13.48;100.00;101054.84;5052840;28;20024;-62
2022/10/14 10:15:18;;;;;;;9.93;8.93;;;;;;;13.50;100.00;101049.66;5049274;28;20040;-61
2022/10/14 10:17:46;;;;;;;11.85;10.65;;;;;;;13.53;100.00;101052.38;5057485;28;20114;-61
2022/10/14 10:20:27;;;;;;;12.23;10.48;;;;;;;13.55;100.00;101045.47;5058107;28;20120;-62
2022/10/14 10:22:53;;;;;;;11.32;10.23;;;;;;;13.58;100.00;101045.56;5060009;28;20081;-62
2022/10/14 10:25:25;;;;;;;11.35;10.18;;;;;;;13.59;100.00;101042.13;5057917;28;20040;-62
2022/10/14 10:27:51;;;;;;;11.50;10.27;;;;;;;13.58;100.00;101040.38;5054716;28;20025;-63
2022/10/14 10:30:16;;;;;;;12.27;10.70;;;;;;;13.58;100.00;101032.56;5068379;28;20095;-62
2022/10/14 10:33:19;;;;;;;12.30;10.35;;;;;;;13.58;100.00;101029.94;5053221;28;20037;-63
2022/10/14 10:36:03;;;;;;;11.85;10.70;;;;;;;13.56;100.00;101032.50;5059742;28;20746;-62
2022/10/14 10:38:38;;;;;;;11.68;10.20;;;;;;;13.58;100.00;101029.94;5065861;28;20369;-62
2022/10/14 10:41:24;;;;;;;12.38;11.18;;;;;;;13.62;100.00;101031.75;5060102;28;20048;-62
2022/10/14 10:44:11;;;;;;;12.50;10.70;;;;;;;13.64;100.00;101022.25;5056859;28;20071;-62
2022/10/14 10:46:55;;;;;;;11.23;9.90;;;;;;;13.65;100.00;101021.41;5059887;28;20032;-61
2022/10/14 10:49:43;;;;;;;10.77;9.73;;;;;;;13.69;100.00;101022.34;5055792;28;20058;-62
2022/10/14 10:52:27;;;;;;;10.57;9.43;;;;;;;13.73;100.00;101018.09;5051431;28;20465;-62
2022/10/14 10:55:10;;;;;;;10.67;9.37;;;;;;;13.73;100.00;101015.50;5072344;28;20396;-62
2022/10/14 10:58:17;;;;;;;9.68;8.73;;;;;;;13.77;100.00;101020.81;5059584;28;20083;-62
2022/10/14 11:00:52;;;;;;;10.93;9.70;;;;;;;13.77;100.00;101009.50;5051533;28;20033;-62
2022/10/14 11:03:36;;;;;;;10.15;9.07;;;;;;;13.80;100.00;101009.56;5051013;28;20112;-62
2022/10/14 11:12:01;;;;;;;9.80;8.80;;;;;;;13.84;100.00;101013.13;5052504;28;20036;-62
2022/10/14 11:12:21;;;;;;;9.55;8.55;;;;;;;13.87;100.00;101006.25;5051203;28;20098;-62
2022/10/14 11:15:13;;;;;;;10.35;8.13;;;;;;;13.83;100.00;101001.84;5055742;28;20455;-63
2022/10/14 11:17:52;;;;;;;8.98;8.07;;;;;;;13.84;100.00;100994.88;5050713;28;20029;-62